Time,TemperatureF,DewpointF,PressureIn,WindDirection,WindDirectionDegrees,WindSpeedMPH,WindSpeedGustMPH,Humidity,HourlyPrecipIn,Conditions,Clouds,dailyrainin,SolarRadiationWatts/m^2,SoftwareType,DateUTC
2013-09-11 00:02:00,71.1,69.0,29.99,WSW,254,0.0,0.0,93,0.00,,,0.00,0,Wunderground v.1.15,2013-09-11 04:02:00,
2013-09-11 00:07:00,71.1,69.0,29.99,WSW,254,0.0,0.0,93,0.00,,,0.00,0,Wunderground v.1.15,2013-09-11 04:07:00,
2013-09-11 00:12:00,71.0,68.9,29.99,WSW,254,0.0,0.0,93,0.00,,,0.00,0,Wunderground v.1.15,2013-09-11 04:12:00,
2013-09-11 00:21:00,71.1,68.7,29.99,WSW,254,0.0,0.0,92,0.00,,,0.00,0,Wunderground v.1.15,2013-09-11 04:21:00,
2013-09-11 00:27:00,71.1,68.7,29.99,WSW,254,0.0,0.0,92,0.00,,,0.00,0,Wunderground v.1.15,2013-09-11 04:27:00,
2013-09-11 00:32:00,71.1,68.3,29.99,WSW,254,0.0,0.0,91,0.00,,,0.00,0,Wunderground v.1.15,2013-09-11 04:32:00,
2013-09-11 00:37:00,71.1,68.3,29.99,WSW,254,0.0,0.0,91,0.00,,,0.00,0,Wunderground v.1.15,2013-09-11 04:37:00,
2013-09-11 00:42:00,71.2,68.4,29.99,WSW,254,0.0,0.0,91,0.00,,,0.00,0,Wunderground v.1.15,2013-09-11 04:42:00,
2013-09-11 00:52:00,71.7,68.3,29.99,SW,218,0.0,1.0,89,0.00,,,0.00,0,Wunderground v.1.15,2013-09-11 04:52:00,
2013-09-11 00:57:00,72.9,67.8,29.99,South,179,1.0,1.0,84,0.00,,,0.00,0,Wunderground v.1.15,2013-09-11 04:57:00,
2013-09-11 01:07:00,75.4,67.7,29.99,SW,217,2.0,2.0,77,0.00,,,0.00,0,Wunderground v.1.15,2013-09-11 05:07:00,
2013-09-11 01:12:00,76.3,67.4,29.99,South,190,2.0,2.0,74,0.00,,,0.00,0,Wunderground v.1.15,2013-09-11 05:12:00,
2013-09-11 01:17:00,76.9,67.2,29.99,SSW,209,2.0,4.0,72,0.00,,,0.00,0,Wunderground v.1.15,2013-09-11 05:17:00,
2013-09-11 01:22:00,77.3,67.2,29.99,SW,217,2.0,4.0,71,0.00,,,0.00,0,Wunderground v.1.15,2013-09-11 05:22:00,
2013-09-11 01:26:00,77.7,67.1,29.99,SSE,163,2.0,2.0,70,0.00,,,0.00,0,Wunderground v.1.15,2013-09-11 05:26:00,
2013-09-11 01:32:00,77.9,67.3,29.99,South,183,1.0,2.0,70,0.00,,,0.00,0,Wunderground v.1.15,2013-09-11 05:32:00,
2013-09-11 01:37:00,77.9,66.9,29.99,SW,221,0.0,0.0,69,0.00,,,0.00,0,Wunderground v.1.15,2013-09-11 05:37:00,
2013-09-11 01:42:00,77.9,66.9,29.99,WSW,238,0.0,0.0,69,0.00,,,0.00,0,Wunderground v.1.15,2013-09-11 05:42:00,
2013-09-11 01:47:00,77.9,66.9,29.99,South,178,0.0,0.0,69,0.00,,,0.00,0,Wunderground v.1.15,2013-09-11 05:47:00,
2013-09-11 01:52:00,77.8,67.2,29.99,South,178,0.0,0.0,70,0.00,,,0.00,0,Wunderground v.1.15,2013-09-11 05:52:00,
2013-09-11 01:57:00,77.7,67.1,29.99,South,178,0.0,0.0,70,0.00,,,0.00,0,Wunderground v.1.15,2013-09-11 05:57:00,
2013-09-11 02:12:00,77.1,67.0,29.99,South,182,0.0,0.0,71,0.00,,,0.00,0,Wunderground v.1.15,2013-09-11 06:12:00,
2013-09-11 02:22:00,76.8,67.1,30.00,South,182,0.0,0.0,72,0.00,,,0.00,0,Wunderground v.1.15,2013-09-11 06:22:00,
2013-09-11 02:31:00,76.4,67.5,29.99,SW,225,0.0,9.0,74,0.00,,,0.00,0,Wunderground v.1.15,2013-09-11 06:31:00,
2013-09-11 02:37:00,76.2,67.3,29.99,SW,225,0.0,9.0,74,0.00,,,0.00,0,Wunderground v.1.15,2013-09-11 06:37:00,
2013-09-11 02:42:00,76.1,67.2,29.99,SW,225,0.0,9.0,74,0.00,,,0.00,0,Wunderground v.1.15,2013-09-11 06:42:00,
2013-09-11 02:52:00,75.7,67.2,29.99,SW,215,0.0,9.0,75,0.00,,,0.00,0,Wunderground v.1.15,2013-09-11 06:52:00,
2013-09-11 02:57:00,75.6,67.5,29.99,SW,215,0.0,0.0,76,0.00,,,0.00,0,Wunderground v.1.15,2013-09-11 06:57:00,
2013-09-11 03:06:00,75.2,67.5,30.00,SW,215,0.0,0.0,77,0.00,,,0.00,0,Wunderground v.1.15,2013-09-11 07:06:00,
2013-09-11 03:11:00,74.9,67.6,30.00,SW,215,0.0,0.0,78,0.00,,,0.00,0,Wunderground v.1.15,2013-09-11 07:11:00,
2013-09-11 03:17:00,74.4,67.5,29.99,SW,215,0.0,0.0,79,0.00,,,0.00,0,Wunderground v.1.15,2013-09-11 07:17:00,
2013-09-11 03:22:00,73.9,67.3,29.99,SW,215,0.0,0.0,80,0.00,,,0.00,0,Wunderground v.1.15,2013-09-11 07:22:00,
2013-09-11 03:27:00,73.4,67.2,29.99,SW,215,0.0,0.0,81,0.00,,,0.00,0,Wunderground v.1.15,2013-09-11 07:27:00,
2013-09-11 03:37:00,72.8,67.3,29.99,SW,223,0.0,3.0,83,0.00,,,0.00,0,Wunderground v.1.15,2013-09-11 07:37:00,
2013-09-11 03:42:00,72.9,67.8,29.99,NW,326,0.0,3.0,84,0.00,,,0.00,0,Wunderground v.1.15,2013-09-11 07:42:00,
2013-09-11 03:52:00,74.1,68.3,29.99,WNW,296,1.0,3.0,82,0.00,,,0.00,0,Wunderground v.1.15,2013-09-11 07:52:00,
2013-09-11 03:57:00,74.8,68.6,29.99,WNW,296,1.0,2.0,81,0.00,,,0.00,0,Wunderground v.1.15,2013-09-11 07:57:00,
2013-09-11 04:07:00,75.2,68.6,29.99,WNW,296,0.0,0.0,80,0.00,,,0.00,0,Wunderground v.1.15,2013-09-11 08:07:00,
2013-09-11 04:12:00,75.3,68.7,29.99,WNW,296,0.0,0.0,80,0.00,,,0.00,0,Wunderground v.1.15,2013-09-11 08:12:00,
2013-09-11 04:17:00,75.3,68.7,29.99,WNW,295,0.0,0.0,80,0.00,,,0.00,0,Wunderground v.1.15,2013-09-11 08:17:00,
2013-09-11 04:27:00,75.4,68.8,29.99,WNW,287,0.0,0.0,80,0.00,,,0.00,0,Wunderground v.1.15,2013-09-11 08:27:00,
2013-09-11 04:37:00,75.5,68.9,29.99,WNW,294,1.0,1.0,80,0.00,,,0.00,0,Wunderground v.1.15,2013-09-11 08:37:00,
2013-09-11 04:47:00,75.3,68.7,29.99,WNW,301,1.0,1.0,80,0.00,,,0.00,0,Wunderground v.1.15,2013-09-11 08:47:00,
2013-09-11 04:57:00,75.1,68.5,29.99,West,274,0.0,0.0,80,0.00,,,0.00,0,Wunderground v.1.15,2013-09-11 08:57:00,
2013-09-11 05:06:00,75.0,68.8,29.99,WSW,254,0.0,0.0,81,0.00,,,0.00,0,Wunderground v.1.15,2013-09-11 09:06:00,
2013-09-11 05:11:00,74.9,68.7,29.99,WNW,284,0.0,0.0,81,0.00,,,0.00,0,Wunderground v.1.15,2013-09-11 09:11:00,
2013-09-11 05:16:00,74.9,68.7,29.99,West,266,0.0,0.0,81,0.00,,,0.00,0,Wunderground v.1.15,2013-09-11 09:16:00,
2013-09-11 05:22:00,74.9,68.7,29.99,West,266,0.0,0.0,81,0.00,,,0.00,0,Wunderground v.1.15,2013-09-11 09:22:00,
2013-09-11 05:27:00,74.9,68.7,29.99,West,266,0.0,0.0,81,0.00,,,0.00,0,Wunderground v.1.15,2013-09-11 09:27:00,
2013-09-11 05:32:00,75.0,69.1,29.99,WNW,285,0.0,5.0,82,0.00,,,0.00,0,Wunderground v.1.15,2013-09-11 09:32:00,
2013-09-11 05:37:00,75.1,69.2,29.99,West,273,1.0,1.0,82,0.00,,,0.00,0,Wunderground v.1.15,2013-09-11 09:37:00,
2013-09-11 05:42:00,75.2,69.3,29.99,WNW,290,1.0,5.0,82,0.00,,,0.00,0,Wunderground v.1.15,2013-09-11 09:42:00,
2013-09-11 05:47:00,75.2,69.3,29.99,WNW,290,1.0,1.0,82,0.00,,,0.00,0,Wunderground v.1.15,2013-09-11 09:47:00,
2013-09-11 05:57:00,75.2,69.3,29.99,WSW,256,1.0,2.0,82,0.00,,,0.00,0,Wunderground v.1.15,2013-09-11 09:57:00,
2013-09-11 06:07:00,75.1,69.2,29.99,West,267,0.0,0.0,82,0.00,,,0.00,0,Wunderground v.1.15,2013-09-11 10:07:00,
2013-09-11 06:11:00,75.1,69.2,29.99,West,274,1.0,1.0,82,0.00,,,0.00,0,Wunderground v.1.15,2013-09-11 10:11:00,
2013-09-11 06:16:00,75.1,69.2,29.99,West,269,1.0,1.0,82,0.00,,,0.00,0,Wunderground v.1.15,2013-09-11 10:16:00,
2013-09-11 06:22:00,75.1,69.6,29.99,West,268,0.0,1.0,83,0.00,,,0.00,0,Wunderground v.1.15,2013-09-11 10:22:00,
2013-09-11 06:32:00,75.0,69.5,29.99,West,269,0.0,4.0,83,0.00,,,0.00,0,Wunderground v.1.15,2013-09-11 10:32:00,
2013-09-11 06:37:00,75.0,69.5,29.99,West,268,1.0,1.0,83,0.00,,,0.00,0,Wunderground v.1.15,2013-09-11 10:37:00,
2013-09-11 06:41:00,75.0,69.5,29.99,West,268,1.0,4.0,83,0.00,,,0.00,0,Wunderground v.1.15,2013-09-11 10:41:00,
2013-09-11 06:46:00,74.9,69.7,29.99,SW,219,0.0,4.0,84,0.00,,,0.00,0,Wunderground v.1.15,2013-09-11 10:46:00,
2013-09-11 06:51:00,75.0,69.8,29.99,SW,219,0.0,4.0,84,0.00,,,0.00,0,Wunderground v.1.15,2013-09-11 10:51:00,
2013-09-11 06:57:00,74.9,69.4,29.99,SW,219,0.0,0.0,83,0.00,,,0.00,0,Wunderground v.1.15,2013-09-11 10:57:00,
2013-09-11 07:07:00,74.6,69.4,29.99,SW,219,0.0,0.0,84,0.00,,,0.00,0,Wunderground v.1.15,2013-09-11 11:07:00,
2013-09-11 07:12:00,74.5,69.3,30.00,SW,219,0.0,0.0,84,0.00,,,0.00,0,Wunderground v.1.15,2013-09-11 11:12:00,
2013-09-11 07:22:00,74.0,69.2,30.00,SW,219,0.0,0.0,85,0.00,,,0.00,7,Wunderground v.1.15,2013-09-11 11:22:00,
2013-09-11 07:32:00,73.3,68.9,30.00,SW,219,0.0,6.0,86,0.00,,,0.00,11,Wunderground v.1.15,2013-09-11 11:32:00,
2013-09-11 07:36:00,72.8,68.4,30.00,SW,219,0.0,6.0,86,0.00,,,0.00,14,Wunderground v.1.15,2013-09-11 11:36:00,
2013-09-11 07:46:00,72.1,68.3,30.00,SW,219,0.0,6.0,88,0.00,,,0.00,16,Wunderground v.1.15,2013-09-11 11:46:00,
2013-09-11 07:57:00,71.4,68.3,30.00,SW,219,0.0,0.0,90,0.00,,,0.00,32,Wunderground v.1.15,2013-09-11 11:57:00,
2013-09-11 08:07:00,71.2,68.1,30.01,SW,219,0.0,0.0,90,0.00,,,0.00,74,Wunderground v.1.15,2013-09-11 12:07:00,
2013-09-11 08:12:00,71.3,68.5,30.01,SW,219,0.0,0.0,91,0.00,,,0.00,37,Wunderground v.1.15,2013-09-11 12:12:00,
2013-09-11 08:17:00,71.4,68.6,30.01,SW,219,0.0,0.0,91,0.00,,,0.00,111,Wunderground v.1.15,2013-09-11 12:17:00,
2013-09-11 08:27:00,71.9,69.1,30.01,SW,219,0.0,0.0,91,0.00,,,0.00,44,Wunderground v.1.15,2013-09-11 12:27:00,
2013-09-11 08:32:00,72.0,69.2,30.01,SW,219,0.0,2.0,91,0.00,,,0.00,42,Wunderground v.1.15,2013-09-11 12:32:00,
2013-09-11 08:42:00,72.1,69.3,30.02,SW,219,0.0,2.0,91,0.00,,,0.00,53,Wunderground v.1.15,2013-09-11 12:42:00,
2013-09-11 08:47:00,72.3,69.5,30.02,SSW,194,0.0,2.0,91,0.00,,,0.00,144,Wunderground v.1.15,2013-09-11 12:47:00,
2013-09-11 08:52:00,72.8,70.0,30.01,SSW,194,0.0,2.0,91,0.00,,,0.00,234,Wunderground v.1.15,2013-09-11 12:52:00,
2013-09-11 08:57:00,73.5,70.7,30.01,SSW,194,0.0,0.0,91,0.00,,,0.00,251,Wunderground v.1.15,2013-09-11 12:57:00,
2013-09-11 09:07:00,74.7,71.2,30.01,South,188,0.0,0.0,89,0.00,,,0.00,272,Wunderground v.1.15,2013-09-11 13:07:00,
2013-09-11 09:12:00,75.4,71.6,30.01,SSW,206,0.0,0.0,88,0.00,,,0.00,285,Wunderground v.1.15,2013-09-11 13:12:00,
2013-09-11 09:17:00,76.0,71.5,30.01,SSW,206,0.0,0.0,86,0.00,,,0.00,299,Wunderground v.1.15,2013-09-11 13:17:00,
2013-09-11 09:22:00,76.7,72.2,30.01,SSW,200,0.0,0.0,86,0.00,,,0.00,311,Wunderground v.1.15,2013-09-11 13:22:00,
2013-09-11 09:32:00,78.0,72.4,30.01,SW,228,2.0,4.0,83,0.00,,,0.00,343,Wunderground v.1.15,2013-09-11 13:32:00,
2013-09-11 09:42:00,79.2,72.9,30.01,SW,233,3.0,6.0,81,0.00,,,0.00,373,Wunderground v.1.15,2013-09-11 13:42:00,
2013-09-11 09:51:00,80.0,72.9,30.01,WSW,245,3.0,4.0,79,0.00,,,0.00,404,Wunderground v.1.15,2013-09-11 13:51:00,
2013-09-11 09:57:00,80.3,72.4,30.01,WSW,258,4.0,8.0,77,0.00,,,0.00,417,Wunderground v.1.15,2013-09-11 13:57:00,
2013-09-11 10:06:00,80.9,73.4,30.01,SW,225,4.0,4.0,78,0.00,,,0.00,438,Wunderground v.1.15,2013-09-11 14:06:00,
2013-09-11 10:12:00,81.1,72.4,30.01,WSW,244,5.0,5.0,75,0.00,,,0.00,455,Wunderground v.1.15,2013-09-11 14:12:00,
2013-09-11 10:17:00,81.4,73.1,30.01,WSW,246,4.0,4.0,76,0.00,,,0.00,464,Wunderground v.1.15,2013-09-11 14:17:00,
2013-09-11 10:27:00,82.0,73.3,30.01,WNW,287,5.0,5.0,75,0.00,,,0.00,489,Wunderground v.1.15,2013-09-11 14:27:00,
2013-09-11 10:37:00,82.4,72.9,30.00,West,262,4.0,4.0,73,0.00,,,0.00,513,Wunderground v.1.15,2013-09-11 14:37:00,
2013-09-11 10:46:00,83.1,72.7,30.00,WSW,252,3.0,3.0,71,0.00,,,0.00,543,Wunderground v.1.15,2013-09-11 14:46:00,
2013-09-11 10:51:00,83.3,72.9,30.00,WSW,238,3.0,7.0,71,0.00,,,0.00,554,Wunderground v.1.15,2013-09-11 14:51:00,
2013-09-11 10:57:00,83.5,73.1,30.00,WSW,251,4.0,4.0,71,0.00,,,0.00,563,Wunderground v.1.15,2013-09-11 14:57:00,
2013-09-11 11:07:00,83.9,72.6,30.00,SW,234,4.0,4.0,69,0.00,,,0.00,598,Wunderground v.1.15,2013-09-11 15:07:00,
2013-09-11 11:17:00,84.7,73.4,30.00,West,277,2.0,5.0,69,0.00,,,0.00,603,Wunderground v.1.15,2013-09-11 15:17:00,
2013-09-11 11:22:00,85.1,74.2,29.99,SW,234,2.0,5.0,70,0.00,,,0.00,566,Wunderground v.1.15,2013-09-11 15:22:00,
2013-09-11 11:27:00,85.0,72.8,29.99,West,269,4.0,6.0,67,0.00,,,0.00,432,Wunderground v.1.15,2013-09-11 15:27:00,
2013-09-11 11:32:00,84.5,72.3,29.99,WNW,288,4.0,10.0,67,0.00,,,0.00,550,Wunderground v.1.15,2013-09-11 15:32:00,
2013-09-11 11:37:00,84.6,73.3,29.99,West,259,3.0,3.0,69,0.00,,,0.00,592,Wunderground v.1.15,2013-09-11 15:37:00,
2013-09-11 11:47:00,85.3,73.5,29.99,WSW,250,3.0,3.0,68,0.00,,,0.00,622,Wunderground v.1.15,2013-09-11 15:47:00,
2013-09-11 11:52:00,85.6,73.8,29.99,West,273,3.0,10.0,68,0.00,,,0.00,680,Wunderground v.1.15,2013-09-11 15:52:00,
2013-09-11 11:57:00,85.9,73.7,29.99,West,264,3.0,3.0,67,0.00,,,0.00,633,Wunderground v.1.15,2013-09-11 15:57:00,
2013-09-11 12:06:00,85.7,72.6,29.99,WSW,243,5.0,5.0,65,0.00,,,0.00,619,Wunderground v.1.15,2013-09-11 16:06:00,
2013-09-11 12:11:00,85.9,73.7,29.99,West,281,5.0,5.0,67,0.00,,,0.00,652,Wunderground v.1.15,2013-09-11 16:11:00,
2013-09-11 12:17:00,86.1,72.0,29.99,WSW,254,5.0,5.0,63,0.00,,,0.00,663,Wunderground v.1.15,2013-09-11 16:17:00,
2013-09-11 12:27:00,87.1,73.9,29.99,WSW,254,2.0,2.0,65,0.00,,,0.00,657,Wunderground v.1.15,2013-09-11 16:27:00,
2013-09-11 12:37:00,87.5,73.8,29.98,WSW,244,2.0,2.0,64,0.00,,,0.00,647,Wunderground v.1.15,2013-09-11 16:37:00,
2013-09-11 12:46:00,87.4,74.2,29.98,SW,227,4.0,11.0,65,0.00,,,0.00,647,Wunderground v.1.15,2013-09-11 16:46:00,
2013-09-11 12:57:00,87.3,74.5,29.98,SW,221,4.0,4.0,66,0.00,,,0.00,673,Wunderground v.1.15,2013-09-11 16:57:00,
2013-09-11 13:07:00,88.1,73.4,29.97,WSW,245,2.0,4.0,62,0.00,,,0.00,686,Wunderground v.1.15,2013-09-11 17:07:00,
2013-09-11 13:12:00,88.3,74.1,29.97,WSW,247,3.0,4.0,63,0.00,,,0.00,766,Wunderground v.1.15,2013-09-11 17:12:00,
2013-09-11 13:17:00,88.7,74.0,29.98,SW,223,3.0,4.0,62,0.00,,,0.00,772,Wunderground v.1.15,2013-09-11 17:17:00,
2013-09-11 13:27:00,88.2,73.5,29.98,West,268,4.0,4.0,62,0.00,,,0.00,237,Wunderground v.1.15,2013-09-11 17:27:00,
2013-09-11 13:32:00,87.7,74.0,29.98,WNW,284,4.0,8.0,64,0.00,,,0.00,798,Wunderground v.1.15,2013-09-11 17:32:00,
2013-09-11 13:37:00,87.6,73.9,29.98,WNW,289,5.0,11.0,64,0.00,,,0.00,745,Wunderground v.1.15,2013-09-11 17:37:00,
2013-09-11 13:42:00,87.7,74.0,29.97,WNW,299,5.0,11.0,64,0.00,,,0.00,747,Wunderground v.1.15,2013-09-11 17:42:00,
2013-09-11 13:47:00,87.9,73.3,29.98,NW,315,5.0,5.0,62,0.00,,,0.00,724,Wunderground v.1.15,2013-09-11 17:47:00,
2013-09-11 13:52:00,87.9,73.7,29.97,West,273,4.0,11.0,63,0.00,,,0.00,703,Wunderground v.1.15,2013-09-11 17:52:00,
2013-09-11 13:57:00,88.0,73.8,29.97,South,190,3.0,4.0,63,0.00,,,0.00,670,Wunderground v.1.15,2013-09-11 17:57:00,
2013-09-11 14:06:00,88.3,73.6,29.96,WSW,248,3.0,5.0,62,0.00,,,0.00,691,Wunderground v.1.15,2013-09-11 18:06:00,
2013-09-11 14:12:00,88.0,73.8,29.96,West,281,3.0,5.0,63,0.00,,,0.00,638,Wunderground v.1.15,2013-09-11 18:12:00,
2013-09-11 14:17:00,88.0,73.8,29.96,West,261,4.0,4.0,63,0.00,,,0.00,701,Wunderground v.1.15,2013-09-11 18:17:00,
2013-09-11 14:22:00,87.9,72.8,29.96,WSW,246,4.0,4.0,61,0.00,,,0.00,656,Wunderground v.1.15,2013-09-11 18:22:00,
2013-09-11 14:27:00,88.1,73.4,29.96,West,279,4.0,4.0,62,0.00,,,0.00,680,Wunderground v.1.15,2013-09-11 18:27:00,
2013-09-11 14:37:00,88.0,72.9,29.95,West,266,5.0,5.0,61,0.00,,,0.00,715,Wunderground v.1.15,2013-09-11 18:37:00,
2013-09-11 14:42:00,87.9,73.3,29.95,South,180,4.0,11.0,62,0.00,,,0.00,647,Wunderground v.1.15,2013-09-11 18:42:00,
2013-09-11 14:52:00,88.6,74.4,29.95,WSW,248,1.0,11.0,63,0.00,,,0.00,684,Wunderground v.1.15,2013-09-11 18:52:00,
2013-09-11 14:57:00,88.4,73.2,29.94,West,260,3.0,5.0,61,0.00,,,0.00,548,Wunderground v.1.15,2013-09-11 18:57:00,
2013-09-11 15:07:00,88.9,75.1,29.95,West,263,3.0,5.0,64,0.00,,,0.00,613,Wunderground v.1.15,2013-09-11 19:07:00,
2013-09-11 15:12:00,89.2,75.0,29.94,South,188,2.0,5.0,63,0.00,,,0.00,338,Wunderground v.1.15,2013-09-11 19:12:00,
2013-09-11 15:17:00,89.0,74.3,29.94,South,174,2.0,5.0,62,0.00,,,0.00,570,Wunderground v.1.15,2013-09-11 19:17:00,
2013-09-11 15:27:00,88.9,73.7,29.94,South,181,3.0,3.0,61,0.00,,,0.00,422,Wunderground v.1.15,2013-09-11 19:27:00,
2013-09-11 15:37:00,89.4,74.7,29.93,SSW,194,2.0,11.0,62,0.00,,,0.00,519,Wunderground v.1.15,2013-09-11 19:37:00,
2013-09-11 15:47:00,89.7,73.5,29.93,South,174,3.0,11.0,59,0.00,,,0.00,457,Wunderground v.1.15,2013-09-11 19:47:00,
2013-09-11 15:51:00,89.5,73.8,29.93,SSE,168,4.0,11.0,60,0.00,,,0.00,295,Wunderground v.1.15,2013-09-11 19:51:00,
2013-09-11 15:57:00,89.4,73.7,29.93,West,259,3.0,3.0,60,0.00,,,0.00,455,Wunderground v.1.15,2013-09-11 19:57:00,
2013-09-11 16:06:00,89.8,74.1,29.93,SW,234,3.0,3.0,60,0.00,,,0.00,450,Wunderground v.1.15,2013-09-11 20:06:00,
2013-09-11 16:11:00,89.8,74.1,29.92,SW,235,3.0,6.0,60,0.00,,,0.00,427,Wunderground v.1.15,2013-09-11 20:11:00,
2013-09-11 16:17:00,89.7,73.5,29.92,WSW,250,3.0,6.0,59,0.00,,,0.00,406,Wunderground v.1.15,2013-09-11 20:17:00,
2013-09-11 16:22:00,89.7,73.5,29.92,SW,215,3.0,6.0,59,0.00,,,0.00,397,Wunderground v.1.15,2013-09-11 20:22:00,
2013-09-11 16:27:00,89.6,72.9,29.91,SW,233,4.0,4.0,58,0.00,,,0.00,427,Wunderground v.1.15,2013-09-11 20:27:00,
2013-09-11 16:32:00,89.8,73.6,29.91,WSW,238,4.0,9.0,59,0.00,,,0.00,489,Wunderground v.1.15,2013-09-11 20:32:00,
2013-09-11 16:37:00,90.1,73.3,29.91,SSW,208,3.0,3.0,58,0.00,,,0.00,438,Wunderground v.1.15,2013-09-11 20:37:00,
2013-09-11 16:42:00,90.2,73.9,29.90,South,189,3.0,9.0,59,0.00,,,0.00,422,Wunderground v.1.15,2013-09-11 20:42:00,
2013-09-11 16:52:00,90.1,72.8,29.90,WSW,251,3.0,9.0,57,0.00,,,0.00,431,Wunderground v.1.15,2013-09-11 20:52:00,
2013-09-11 16:57:00,90.1,72.3,29.89,South,182,5.0,5.0,56,0.00,,,0.00,417,Wunderground v.1.15,2013-09-11 20:57:00,
2013-09-11 17:07:00,90.0,71.7,29.90,SW,236,5.0,8.0,55,0.00,,,0.00,86,Wunderground v.1.15,2013-09-11 21:07:00,
2013-09-11 17:11:00,89.2,71.5,29.90,WSW,239,5.0,8.0,56,0.00,,,0.00,58,Wunderground v.1.15,2013-09-11 21:11:00,
2013-09-11 17:17:00,88.6,71.9,29.90,West,266,3.0,3.0,58,0.00,,,0.00,76,Wunderground v.1.15,2013-09-11 21:17:00,
2013-09-11 17:22:00,88.1,72.0,29.89,WSW,255,2.0,4.0,59,0.00,,,0.00,86,Wunderground v.1.15,2013-09-11 21:22:00,
2013-09-11 17:27:00,87.8,72.2,29.89,West,270,2.0,2.0,60,0.00,,,0.00,77,Wunderground v.1.15,2013-09-11 21:27:00,
2013-09-11 17:32:00,87.6,72.5,29.89,West,269,1.0,9.0,61,0.00,,,0.00,62,Wunderground v.1.15,2013-09-11 21:32:00,
2013-09-11 17:37:00,87.3,72.7,29.88,West,269,0.0,9.0,62,0.00,,,0.00,49,Wunderground v.1.15,2013-09-11 21:37:00,
2013-09-11 17:42:00,87.0,72.4,29.88,West,269,0.0,9.0,62,0.00,,,0.00,39,Wunderground v.1.15,2013-09-11 21:42:00,
2013-09-11 17:52:00,86.6,73.0,29.89,West,269,0.0,9.0,64,0.00,,,0.00,26,Wunderground v.1.15,2013-09-11 21:52:00,
2013-09-11 17:57:00,86.3,72.7,29.89,SW,227,0.0,0.0,64,0.00,,,0.00,18,Wunderground v.1.15,2013-09-11 21:57:00,
2013-09-11 18:07:00,85.9,72.8,29.88,WSW,250,0.0,0.0,65,0.00,,,0.00,9,Wunderground v.1.15,2013-09-11 22:07:00,
2013-09-11 18:12:00,85.7,73.0,29.88,WSW,250,0.0,0.0,66,0.00,,,0.00,5,Wunderground v.1.15,2013-09-11 22:12:00,
2013-09-11 18:17:00,85.5,73.3,29.89,NW,315,0.0,0.0,67,0.00,,,0.00,5,Wunderground v.1.15,2013-09-11 22:17:00,
2013-09-11 18:26:00,84.7,73.4,29.90,WNW,293,0.0,3.0,69,0.00,,,0.00,0,Wunderground v.1.15,2013-09-11 22:26:00,
2013-09-11 18:31:00,83.7,71.6,29.93,NW,312,5.0,13.0,67,0.00,,,0.00,0,Wunderground v.1.15,2013-09-11 22:31:00,
2013-09-11 18:37:00,81.7,71.8,29.94,WNW,289,9.0,11.0,72,0.00,,,0.00,0,Wunderground v.1.15,2013-09-11 22:37:00,
2013-09-11 18:42:00,79.1,70.1,29.95,NW,316,9.0,11.0,74,0.00,,,0.01,0,Wunderground v.1.15,2013-09-11 22:42:00,
2013-09-11 18:52:00,74.9,68.3,29.96,NW,315,7.0,13.0,80,0.10,,,0.02,0,Wunderground v.1.15,2013-09-11 22:52:00,
2013-09-11 18:57:00,73.6,67.8,29.96,NW,318,6.0,6.0,82,0.07,,,0.03,0,Wunderground v.1.15,2013-09-11 22:57:00,
2013-09-11 19:07:00,72.2,67.8,29.96,NNW,346,4.0,4.0,86,0.09,,,0.04,0,Wunderground v.1.15,2013-09-11 23:07:00,
2013-09-11 19:17:00,71.5,67.8,29.97,NNW,332,3.0,3.0,88,0.11,,,0.06,0,Wunderground v.1.15,2013-09-11 23:17:00,
2013-09-11 19:31:00,70.9,67.8,29.96,NNW,340,1.0,22.0,90,0.12,,,0.08,0,Wunderground v.1.15,2013-09-11 23:31:00,
2013-09-11 19:42:00,70.7,67.9,29.94,NNW,327,1.0,1.0,91,0.06,,,0.09,0,Wunderground v.1.15,2013-09-11 23:42:00,
2013-09-11 19:47:00,70.6,68.2,29.94,NNW,327,1.0,22.0,92,0.10,,,0.10,0,Wunderground v.1.15,2013-09-11 23:47:00,
2013-09-11 19:52:00,70.5,68.1,29.94,SW,215,0.0,22.0,92,0.08,,,0.10,0,Wunderground v.1.15,2013-09-11 23:52:00,
2013-09-11 19:57:00,70.5,68.1,29.94,SW,215,0.0,0.0,92,0.05,,,0.10,0,Wunderground v.1.15,2013-09-11 23:57:00,
2013-09-11 20:07:00,70.4,68.3,29.95,SW,215,0.0,0.0,93,0.00,,,0.10,0,Wunderground v.1.15,2013-09-12 00:07:00,
2013-09-11 20:12:00,70.3,68.2,29.95,SW,215,0.0,0.0,93,0.00,,,0.10,0,Wunderground v.1.15,2013-09-12 00:12:00,
2013-09-11 20:17:00,70.3,68.5,29.95,WNW,286,0.0,0.0,94,0.00,,,0.10,0,Wunderground v.1.15,2013-09-12 00:17:00,
2013-09-11 20:22:00,70.2,68.4,29.96,West,277,1.0,1.0,94,0.00,,,0.10,0,Wunderground v.1.15,2013-09-12 00:22:00,
2013-09-11 20:27:00,70.2,68.4,29.96,WNW,301,2.0,2.0,94,0.00,,,0.11,0,Wunderground v.1.15,2013-09-12 00:27:00,
2013-09-11 20:42:00,70.2,68.4,29.95,NW,326,1.0,8.0,94,0.06,,,0.13,0,Wunderground v.1.15,2013-09-12 00:42:00,
2013-09-11 20:47:00,70.1,68.3,29.95,NW,326,0.0,8.0,94,0.06,,,0.13,0,Wunderground v.1.15,2013-09-12 00:47:00,
2013-09-11 20:52:00,70.1,68.3,29.95,NW,326,0.0,8.0,94,0.05,,,0.13,0,Wunderground v.1.15,2013-09-12 00:52:00,
2013-09-11 20:57:00,70.1,68.3,29.94,NW,326,0.0,0.0,94,0.00,,,0.13,0,Wunderground v.1.15,2013-09-12 00:57:00,
2013-09-11 21:06:00,70.0,68.2,29.94,NW,326,0.0,0.0,94,0.00,,,0.13,0,Wunderground v.1.15,2013-09-12 01:06:00,
2013-09-11 21:11:00,70.0,68.2,29.94,NW,326,0.0,0.0,94,0.00,,,0.13,0,Wunderground v.1.15,2013-09-12 01:11:00,
2013-09-11 21:16:00,70.0,68.2,29.94,NW,326,0.0,0.0,94,0.00,,,0.13,0,Wunderground v.1.15,2013-09-12 01:16:00,
2013-09-11 21:21:00,69.9,68.1,29.95,NW,326,0.0,0.0,94,0.00,,,0.13,0,Wunderground v.1.15,2013-09-12 01:21:00,
2013-09-11 21:27:00,70.0,68.5,29.95,NW,326,0.0,0.0,95,0.00,,,0.13,0,Wunderground v.1.15,2013-09-12 01:27:00,
2013-09-11 21:32:00,70.0,68.5,29.96,NW,326,0.0,7.0,95,0.00,,,0.13,0,Wunderground v.1.15,2013-09-12 01:32:00,
2013-09-11 21:42:00,70.1,68.6,29.96,South,185,1.0,7.0,95,0.00,,,0.13,0,Wunderground v.1.15,2013-09-12 01:42:00,
2013-09-11 21:47:00,70.0,68.5,29.96,South,185,0.0,7.0,95,0.00,,,0.13,0,Wunderground v.1.15,2013-09-12 01:47:00,
2013-09-11 21:52:00,70.0,68.5,29.95,South,185,0.0,7.0,95,0.00,,,0.13,0,Wunderground v.1.15,2013-09-12 01:52:00,
2013-09-11 21:57:00,70.0,68.5,29.95,South,185,0.0,0.0,95,0.00,,,0.13,0,Wunderground v.1.15,2013-09-12 01:57:00,
2013-09-11 22:07:00,70.1,68.6,29.95,South,185,0.0,0.0,95,0.00,,,0.13,0,Wunderground v.1.15,2013-09-12 02:07:00,
2013-09-11 22:11:00,70.1,68.6,29.95,South,185,0.0,0.0,95,0.00,,,0.13,0,Wunderground v.1.15,2013-09-12 02:11:00,
2013-09-11 22:16:00,70.0,68.5,29.95,South,185,0.0,0.0,95,0.00,,,0.13,0,Wunderground v.1.15,2013-09-12 02:16:00,
2013-09-11 22:21:00,70.1,68.6,29.96,South,185,0.0,0.0,95,0.00,,,0.13,0,Wunderground v.1.15,2013-09-12 02:21:00,
2013-09-11 22:26:00,70.0,68.5,29.96,South,185,0.0,0.0,95,0.00,,,0.13,0,Wunderground v.1.15,2013-09-12 02:26:00,
2013-09-11 22:31:00,70.0,68.5,29.96,South,185,0.0,0.0,95,0.00,,,0.13,0,Wunderground v.1.15,2013-09-12 02:31:00,
2013-09-11 22:37:00,70.0,68.8,29.96,South,185,0.0,0.0,96,0.00,,,0.13,0,Wunderground v.1.15,2013-09-12 02:37:00,
2013-09-11 22:42:00,70.0,68.8,29.96,South,185,0.0,0.0,96,0.00,,,0.13,0,Wunderground v.1.15,2013-09-12 02:42:00,
2013-09-11 22:47:00,70.0,68.8,29.96,South,185,0.0,0.0,96,0.00,,,0.13,0,Wunderground v.1.15,2013-09-12 02:47:00,
2013-09-11 22:52:00,69.9,68.7,29.96,SSW,210,0.0,1.0,96,0.00,,,0.13,0,Wunderground v.1.15,2013-09-12 02:52:00,
2013-09-11 22:57:00,69.9,68.7,29.96,SSW,213,1.0,2.0,96,0.00,,,0.13,0,Wunderground v.1.15,2013-09-12 02:57:00,
2013-09-11 23:07:00,69.9,68.7,29.95,SW,229,0.0,0.0,96,0.00,,,0.13,0,Wunderground v.1.15,2013-09-12 03:07:00,
2013-09-11 23:17:00,69.7,68.5,29.94,SW,229,0.0,0.0,96,0.00,,,0.13,0,Wunderground v.1.15,2013-09-12 03:17:00,
2013-09-11 23:27:00,69.6,68.4,29.94,SW,229,0.0,0.0,96,0.00,,,0.13,0,Wunderground v.1.15,2013-09-12 03:27:00,
2013-09-11 23:37:00,69.5,68.3,29.94,SW,229,0.0,0.0,96,0.00,,,0.13,0,Wunderground v.1.15,2013-09-12 03:37:00,
2013-09-11 23:47:00,69.3,68.1,29.93,SW,229,0.0,0.0,96,0.00,,,0.13,0,Wunderground v.1.15,2013-09-12 03:47:00,
2013-09-11 23:52:00,69.2,68.0,29.93,SW,229,0.0,0.0,96,0.00,,,0.13,0,Wunderground v.1.15,2013-09-12 03:52:00,
2013-09-11 23:57:00,69.2,68.0,29.93,SW,229,0.0,0.0,96,0.00,,,0.13,0,Wunderground v.1.15,2013-09-12 03:57:00,